Time;durP1;ratioP1;P1;durP2;ratioP2;P2;SDS_P1;SDS_P2;PMS_P1;PMS_P2;Temp;Humidity;BMP_temperature;BMP_pressure;BME280_temperature;BME280_humidity;BME280_pressure;Samples;Min_cycle;Max_cycle;Signal;HPM_P1;HPM_P2
2023/07/05 00:00:55;;;;;;;12.25;6.68;;;;;;;;;;5093873;28;20223;-50
2023/07/05 00:03:42;;;;;;;13.30;5.78;;;;;;;;;;5093964;28;20203;-47
2023/07/05 00:06:09;;;;;;;12.57;6.05;;;;;;;;;;5094040;28;20203;-47
2023/07/05 00:08:37;;;;;;;12.80;6.22;;;;;;;;;;5093838;28;20571;-47
2023/07/05 00:11:05;;;;;;;15.90;6.57;;;;;;;;;;5092692;28;20272;-47
2023/07/05 00:13:33;;;;;;;13.38;6.30;;;;;;;;;;5073633;28;20218;-47
2023/07/05 00:16:00;;;;;;;10.88;5.82;;;;;;;;;;5073734;28;20204;-47
2023/07/05 00:18:28;;;;;;;18.92;6.18;;;;;;;;;;5073759;28;20207;-47
2023/07/05 00:20:59;;;;;;;15.40;5.50;;;;;;;;;;5074233;28;20227;-48
2023/07/05 00:23:28;;;;;;;13.38;6.30;;;;;;;;;;5093980;28;20191;-48
2023/07/05 00:25:55;;;;;;;9.70;5.25;;;;;;;;;;5093362;28;20230;-49
2023/07/05 00:28:22;;;;;;;9.98;5.85;;;;;;;;;;5093457;28;20198;-47
2023/07/05 00:30:49;;;;;;;10.90;6.30;;;;;;;;;;5093484;28;20655;-47
2023/07/05 00:33:16;;;;;;;11.32;6.68;;;;;;;;;;5093779;28;20207;-47
2023/07/05 00:35:51;;;;;;;11.70;6.28;;;;;;;;;;5093630;28;20203;-48
2023/07/05 00:38:20;;;;;;;14.30;7.00;;;;;;;;;;5093938;28;20206;-48
2023/07/05 00:40:48;;;;;;;13.70;7.35;;;;;;;;;;5092123;28;20198;-47
2023/07/05 00:43:17;;;;;;;13.73;7.55;;;;;;;;;;5092165;28;20206;-47
2023/07/05 00:45:58;;;;;;;11.75;7.22;;;;;;;;;;5092387;28;20203;-48
2023/07/05 00:48:32;;;;;;;12.52;7.68;;;;;;;;;;5093590;28;20210;-49
2023/07/05 00:51:03;;;;;;;15.40;8.70;;;;;;;;;;5075665;28;20625;-48
2023/07/05 00:53:34;;;;;;;18.75;10.70;;;;;;;;;;5092057;28;20198;-49
2023/07/05 00:56:10;;;;;;;23.88;12.57;;;;;;;;;;5092333;28;20211;-47
2023/07/05 00:58:38;;;;;;;23.67;13.13;;;;;;;;;;5077181;28;20206;-47
2023/07/05 01:01:05;;;;;;;28.30;14.13;;;;;;;;;;5096010;28;20203;-51
2023/07/05 01:03:34;;;;;;;16.13;9.52;;;;;;;;;;5095991;28;20203;-47
2023/07/05 01:06:02;;;;;;;17.63;8.18;;;;;;;;;;5096225;28;20194;-48
2023/07/05 01:08:30;;;;;;;14.10;8.38;;;;;;;;;;5097257;28;20562;-48
2023/07/05 01:11:13;;;;;;;14.10;7.05;;;;;;;;;;5097284;28;20218;-48
2023/07/05 01:13:46;;;;;;;14.18;7.15;;;;;;;;;;5096026;28;20202;-47
2023/07/05 01:16:33;;;;;;;9.65;6.50;;;;;;;;;;5095958;28;20201;-47
2023/07/05 01:19:39;;;;;;;11.40;6.55;;;;;;;;;;5065821;28;20202;-47
2023/07/05 01:22:12;;;;;;;11.15;6.45;;;;;;;;;;5091726;28;20219;-48
2023/07/05 01:25:01;;;;;;;12.75;6.60;;;;;;;;;;5079107;28;20226;-47
2023/07/05 01:27:54;;;;;;;10.80;6.47;;;;;;;;;;5078936;28;20678;-47
2023/07/05 01:30:27;;;;;;;18.58;7.05;;;;;;;;;;5096682;28;20206;-47
2023/07/05 01:33:10;;;;;;;15.55;7.60;;;;;;;;;;5095278;28;20195;-47
2023/07/05 01:35:42;;;;;;;12.40;6.53;;;;;;;;;;5096493;28;20207;-47
2023/07/05 01:38:09;;;;;;;13.38;6.40;;;;;;;;;;5095367;28;20203;-47
2023/07/05 01:40:37;;;;;;;12.77;6.72;;;;;;;;;;5096554;28;20592;-47
2023/07/05 01:43:10;;;;;;;12.35;6.35;;;;;;;;;;5096196;28;20230;-48
2023/07/05 01:45:52;;;;;;;10.18;5.95;;;;;;;;;;5094946;28;20225;-47
2023/07/05 01:48:45;;;;;;;23.38;7.65;;;;;;;;;;5095236;28;20205;-47
2023/07/05 01:51:54;;;;;;;13.70;7.78;;;;;;;;;;5094957;28;20220;-47
2023/07/05 01:54:45;;;;;;;15.35;7.18;;;;;;;;;;5096345;28;20198;-48
2023/07/05 01:57:21;;;;;;;17.08;6.78;;;;;;;;;;5078318;28;20239;-49
2023/07/05 02:00:04;;;;;;;14.70;6.95;;;;;;;;;;5078053;28;20210;-47
2023/07/05 02:02:42;;;;;;;14.60;5.88;;;;;;;;;;5094523;28;20234;-47
2023/07/05 02:05:10;;;;;;;16.55;6.85;;;;;;;;;;5078265;28;20199;-47
2023/07/05 02:07:37;;;;;;;19.70;8.00;;;;;;;;;;5094644;28;20210;-48
2023/07/05 02:10:06;;;;;;;15.50;6.97;;;;;;;;;;5094927;28;20210;-49
2023/07/05 02:12:33;;;;;;;14.98;6.95;;;;;;;;;;5095664;28;20264;-49
2023/07/05 02:15:01;;;;;;;14.57;7.35;;;;;;;;;;5095561;28;20286;-47
2023/07/05 02:17:28;;;;;;;22.40;6.68;;;;;;;;;;5095813;28;20202;-47
2023/07/05 02:19:55;;;;;;;13.18;6.50;;;;;;;;;;5094315;28;20198;-48
2023/07/05 02:22:22;;;;;;;13.07;5.75;;;;;;;;;;5094209;28;20597;-47
2023/07/05 02:24:51;;;;;;;12.90;5.57;;;;;;;;;;5095609;28;20231;-48
2023/07/05 02:27:19;;;;;;;10.48;5.57;;;;;;;;;;5095271;28;20567;-47
2023/07/05 02:29:46;;;;;;;9.38;4.88;;;;;;;;;;5095178;28;20667;-47
2023/07/05 02:32:13;;;;;;;9.80;5.20;;;;;;;;;;5094295;28;20207;-49
2023/07/05 02:34:42;;;;;;;10.80;5.53;;;;;;;;;;5095307;28;20572;-47
2023/07/05 02:37:11;;;;;;;8.75;5.05;;;;;;;;;;5095400;28;20191;-47
2023/07/05 02:39:38;;;;;;;10.35;6.32;;;;;;;;;;5095091;28;20203;-47
2023/07/05 02:42:05;;;;;;;13.93;5.85;;;;;;;;;;5095071;28;20590;-47
2023/07/05 02:44:35;;;;;;;19.65;6.95;;;;;;;;;;5095598;28;20203;-47
2023/07/05 02:47:02;;;;;;;12.90;6.57;;;;;;;;;;5095670;28;20568;-47
2023/07/05 02:49:29;;;;;;;12.57;5.80;;;;;;;;;;5095449;28;20281;-47
2023/07/05 02:51:56;;;;;;;15.10;7.13;;;;;;;;;;5093864;28;20203;-47
2023/07/05 02:54:23;;;;;;;12.52;6.70;;;;;;;;;;5095080;28;20203;-49
2023/07/05 02:56:51;;;;;;;12.63;6.82;;;;;;;;;;5094045;28;20211;-47
2023/07/05 02:59:18;;;;;;;13.27;7.10;;;;;;;;;;5094246;28;20225;-48
2023/07/05 03:01:45;;;;;;;12.57;7.43;;;;;;;;;;5095103;28;20222;-48
2023/07/05 03:04:14;;;;;;;13.25;7.75;;;;;;;;;;5093762;28;20199;-48
2023/07/05 03:06:41;;;;;;;14.82;7.70;;;;;;;;;;5093913;28;20202;-47
2023/07/05 03:09:08;;;;;;;19.80;8.40;;;;;;;;;;5080554;28;20578;-48
2023/07/05 03:11:36;;;;;;;16.55;8.85;;;;;;;;;;5072775;28;20226;-48
2023/07/05 03:14:03;;;;;;;18.58;8.75;;;;;;;;;;5072492;28;20664;-48
2023/07/05 03:16:30;;;;;;;20.48;7.72;;;;;;;;;;5079110;28;20207;-49
2023/07/05 03:18:57;;;;;;;13.50;7.10;;;;;;;;;;5092837;28;20248;-47
2023/07/05 03:21:25;;;;;;;14.25;7.25;;;;;;;;;;5092445;28;20194;-48
2023/07/05 03:23:52;;;;;;;15.52;7.40;;;;;;;;;;5092688;28;20235;-49
2023/07/05 03:26:19;;;;;;;14.00;7.25;;;;;;;;;;5092709;28;20210;-47
2023/07/05 03:28:46;;;;;;;14.13;7.38;;;;;;;;;;5092746;28;20198;-49
2023/07/05 03:31:15;;;;;;;12.43;6.28;;;;;;;;;;5087792;28;20253;-47
2023/07/05 03:33:43;;;;;;;19.33;6.97;;;;;;;;;;5115794;27;20213;-47
2023/07/05 03:36:13;;;;;;;13.82;7.47;;;;;;;;;;5082536;28;20211;-47
2023/07/05 03:38:41;;;;;;;17.25;7.70;;;;;;;;;;5083514;28;20195;-50
2023/07/05 03:41:16;;;;;;;19.95;7.25;;;;;;;;;;5085508;28;20692;-48
2023/07/05 03:43:46;;;;;;;15.02;7.30;;;;;;;;;;5117892;27;20221;-47
2023/07/05 03:46:14;;;;;;;15.65;7.95;;;;;;;;;;5086331;28;20207;-48
2023/07/05 03:48:44;;;;;;;16.42;9.10;;;;;;;;;;5088048;28;20230;-48
2023/07/05 03:51:13;;;;;;;17.88;8.27;;;;;;;;;;5087762;28;20195;-48
2023/07/05 03:53:40;;;;;;;16.95;8.65;;;;;;;;;;5087745;28;20282;-48
2023/07/05 03:56:09;;;;;;;16.25;7.50;;;;;;;;;;5088649;28;20206;-47
2023/07/05 03:58:37;;;;;;;16.58;8.13;;;;;;;;;;5090431;28;20197;-46
2023/07/05 04:01:07;;;;;;;14.75;8.52;;;;;;;;;;5093647;28;20195;-50
2023/07/05 04:03:35;;;;;;;14.63;7.45;;;;;;;;;;5087663;28;20206;-46
2023/07/05 04:06:02;;;;;;;16.92;8.20;;;;;;;;;;5085930;28;20192;-46
2023/07/05 04:08:30;;;;;;;20.63;8.23;;;;;;;;;;5089910;28;20206;-47
2023/07/05 04:10:57;;;;;;;18.77;9.13;;;;;;;;;;5094337;28;20199;-46
2023/07/05 04:13:25;;;;;;;16.73;8.75;;;;;;;;;;5081536;28;20233;-47
2023/07/05 04:16:03;;;;;;;17.30;8.57;;;;;;;;;;5084960;28;20583;-46
2023/07/05 04:18:31;;;;;;;15.63;8.65;;;;;;;;;;5072657;28;20235;-47
2023/07/05 04:20:59;;;;;;;16.58;9.07;;;;;;;;;;5084909;28;20250;-47
2023/07/05 04:23:26;;;;;;;27.23;10.20;;;;;;;;;;5087550;28;20239;-47
2023/07/05 04:26:05;;;;;;;15.38;9.65;;;;;;;;;;5092659;28;20234;-47
2023/07/05 04:28:33;;;;;;;20.52;9.25;;;;;;;;;;5079824;28;20230;-47
2023/07/05 04:31:01;;;;;;;18.15;10.25;;;;;;;;;;5091099;28;20842;-49
2023/07/05 04:33:28;;;;;;;19.88;10.25;;;;;;;;;;5092623;28;20234;-48
2023/07/05 04:35:58;;;;;;;20.48;10.85;;;;;;;;;;5091470;28;20230;-48
2023/07/05 04:38:26;;;;;;;20.52;11.02;;;;;;;;;;5081522;28;20225;-47
2023/07/05 04:40:55;;;;;;;20.10;11.10;;;;;;;;;;5072715;28;20239;-47
2023/07/05 04:43:23;;;;;;;20.13;10.50;;;;;;;;;;5071943;28;20245;-48
2023/07/05 04:45:52;;;;;;;19.95;10.05;;;;;;;;;;5072480;28;20595;-49
2023/07/05 04:48:19;;;;;;;18.38;10.52;;;;;;;;;;5072638;28;20290;-47
2023/07/05 04:50:52;;;;;;;18.52;10.18;;;;;;;;;;5071946;28;20227;-47
2023/07/05 04:53:21;;;;;;;22.10;10.57;;;;;;;;;;5071390;28;20223;-50
2023/07/05 04:55:51;;;;;;;21.90;10.80;;;;;;;;;;5072330;28;20220;-48
2023/07/05 04:58:18;;;;;;;20.58;10.60;;;;;;;;;;5077905;28;20230;-48
2023/07/05 05:00:49;;;;;;;24.55;11.68;;;;;;;;;;5092286;28;20730;-48
2023/07/05 05:03:19;;;;;;;20.35;10.95;;;;;;;;;;5092546;28;20264;-48
2023/07/05 05:05:53;;;;;;;25.73;11.70;;;;;;;;;;5092493;28;20234;-48
2023/07/05 05:08:22;;;;;;;20.30;10.55;;;;;;;;;;5092748;28;20219;-49
2023/07/05 05:10:51;;;;;;;22.20;11.30;;;;;;;;;;5086571;28;20584;-51
2023/07/05 05:13:19;;;;;;;22.08;10.98;;;;;;;;;;5092195;28;20214;-51
2023/07/05 05:15:47;;;;;;;27.15;11.00;;;;;;;;;;5092271;28;20229;-48
2023/07/05 05:18:15;;;;;;;20.30;11.23;;;;;;;;;;5091016;28;20291;-48
2023/07/05 05:20:42;;;;;;;24.02;11.55;;;;;;;;;;5091736;28;20593;-50
2023/07/05 05:23:09;;;;;;;21.17;10.88;;;;;;;;;;5088233;28;20225;-50
2023/07/05 05:25:39;;;;;;;18.50;10.07;;;;;;;;;;5080900;28;20288;-49
2023/07/05 05:28:06;;;;;;;23.98;11.80;;;;;;;;;;5073017;28;20261;-48
2023/07/05 05:30:34;;;;;;;22.15;11.23;;;;;;;;;;5073070;28;20199;-48
2023/07/05 05:33:05;;;;;;;22.73;11.40;;;;;;;;;;5072940;28;20257;-49
2023/07/05 05:35:34;;;;;;;22.13;11.93;;;;;;;;;;5073010;28;20222;-48
2023/07/05 05:38:03;;;;;;;25.98;12.30;;;;;;;;;;5082198;28;20195;-46
2023/07/05 05:40:34;;;;;;;21.77;11.68;;;;;;;;;;5092238;28;20543;-49
2023/07/05 05:43:01;;;;;;;22.02;11.77;;;;;;;;;;5092545;28;20207;-47
2023/07/05 05:45:28;;;;;;;22.35;11.20;;;;;;;;;;5093433;28;20207;-51
2023/07/05 05:47:55;;;;;;;17.73;10.90;;;;;;;;;;5087970;28;20313;-53
2023/07/05 05:50:24;;;;;;;19.88;11.15;;;;;;;;;;5094728;28;20276;-51
2023/07/05 05:52:51;;;;;;;17.67;10.30;;;;;;;;;;5087943;28;20699;-49
2023/07/05 05:55:19;;;;;;;21.92;11.25;;;;;;;;;;5076968;28;20276;-49
2023/07/05 05:57:46;;;;;;;18.08;10.25;;;;;;;;;;5084919;28;20225;-51
2023/07/05 06:00:14;;;;;;;16.23;9.80;;;;;;;;;;5087294;28;20220;-50
2023/07/05 06:02:41;;;;;;;23.75;10.20;;;;;;;;;;5086168;28;20627;-50
2023/07/05 06:05:10;;;;;;;23.38;10.25;;;;;;;;;;5074993;28;20245;-47
2023/07/05 06:07:37;;;;;;;18.83;9.43;;;;;;;;;;5074899;28;20257;-54
2023/07/05 06:10:05;;;;;;;17.50;10.52;;;;;;;;;;5075122;28;20262;-54
2023/07/05 06:12:32;;;;;;;16.70;9.02;;;;;;;;;;5074743;28;20235;-51
2023/07/05 06:14:59;;;;;;;20.10;9.30;;;;;;;;;;5092658;28;20225;-48
2023/07/05 06:17:27;;;;;;;20.55;9.25;;;;;;;;;;5094081;28;20347;-49
2023/07/05 06:19:54;;;;;;;16.95;9.48;;;;;;;;;;5093919;28;20275;-52
2023/07/05 06:22:21;;;;;;;16.58;9.23;;;;;;;;;;5093574;28;20313;-49
2023/07/05 06:24:48;;;;;;;17.70;9.00;;;;;;;;;;5092447;28;20249;-48
2023/07/05 06:27:17;;;;;;;15.50;9.02;;;;;;;;;;5093304;28;20768;-50
2023/07/05 06:29:44;;;;;;;12.25;7.97;;;;;;;;;;5093960;28;20675;-52
2023/07/05 06:32:11;;;;;;;14.90;8.40;;;;;;;;;;5091438;28;20218;-50
2023/07/05 06:34:39;;;;;;;15.52;8.27;;;;;;;;;;5094134;28;20215;-49
2023/07/05 06:37:06;;;;;;;14.90;8.57;;;;;;;;;;5094910;28;20195;-48
2023/07/05 06:39:33;;;;;;;15.75;8.13;;;;;;;;;;5089327;28;20286;-51
2023/07/05 06:42:01;;;;;;;14.65;8.15;;;;;;;;;;5092864;28;20651;-53
2023/07/05 06:44:32;;;;;;;13.57;8.30;;;;;;;;;;5091193;28;20206;-53
2023/07/05 06:46:59;;;;;;;14.25;8.43;;;;;;;;;;5094827;28;20199;-52
2023/07/05 06:49:27;;;;;;;13.48;8.50;;;;;;;;;;5094830;28;20190;-52
2023/07/05 06:51:54;;;;;;;15.82;8.23;;;;;;;;;;5094224;28;20187;-51
2023/07/05 06:54:21;;;;;;;16.77;8.50;;;;;;;;;;5094426;28;20249;-53
2023/07/05 06:56:49;;;;;;;17.08;8.50;;;;;;;;;;5094392;28;20198;-55
2023/07/05 06:59:16;;;;;;;15.63;9.52;;;;;;;;;;5094674;28;20198;-54
2023/07/05 07:01:43;;;;;;;26.55;9.38;;;;;;;;;;5094187;28;20279;-56
2023/07/05 07:04:10;;;;;;;13.75;8.70;;;;;;;;;;5094206;28;20725;-55
2023/07/05 07:06:37;;;;;;;15.13;8.65;;;;;;;;;;5094082;28;20203;-55
2023/07/05 07:09:05;;;;;;;14.88;8.57;;;;;;;;;;5094137;28;20664;-55
2023/07/05 07:11:32;;;;;;;14.40;8.23;;;;;;;;;;5094456;28;20577;-55
2023/07/05 07:14:00;;;;;;;13.38;8.05;;;;;;;;;;5094244;28;20641;-55
2023/07/05 07:16:27;;;;;;;15.65;7.63;;;;;;;;;;5094096;28;20206;-53
2023/07/05 07:18:55;;;;;;;13.68;8.20;;;;;;;;;;5094690;28;20209;-52
2023/07/05 07:21:23;;;;;;;15.98;8.05;;;;;;;;;;5094351;28;20302;-50
2023/07/05 07:23:51;;;;;;;14.23;7.60;;;;;;;;;;5094059;28;20233;-49
2023/07/05 07:26:24;;;;;;;13.30;8.30;;;;;;;;;;5094515;28;20271;-55
2023/07/05 07:28:53;;;;;;;12.60;7.13;;;;;;;;;;5087354;28;20268;-50
2023/07/05 07:31:26;;;;;;;14.43;8.27;;;;;;;;;;5083903;28;20227;-49
2023/07/05 07:33:53;;;;;;;16.13;7.75;;;;;;;;;;5078649;28;20226;-49
2023/07/05 07:36:23;;;;;;;12.00;7.70;;;;;;;;;;5093110;28;20588;-50
2023/07/05 07:38:51;;;;;;;14.88;8.07;;;;;;;;;;5093462;28;20233;-49
2023/07/05 07:41:30;;;;;;;13.10;7.13;;;;;;;;;;5086448;28;20778;-54
2023/07/05 07:44:06;;;;;;;14.38;7.45;;;;;;;;;;5091282;28;20276;-53
2023/07/05 07:46:35;;;;;;;17.23;8.27;;;;;;;;;;5093002;28;20222;-51
2023/07/05 07:49:04;;;;;;;14.57;7.88;;;;;;;;;;5092252;28;20576;-51
2023/07/05 07:51:33;;;;;;;13.65;7.60;;;;;;;;;;5092421;28;20250;-54
2023/07/05 07:54:14;;;;;;;14.75;7.93;;;;;;;;;;5092870;28;20226;-50
2023/07/05 07:56:45;;;;;;;13.85;7.60;;;;;;;;;;5093029;28;20204;-49
2023/07/05 07:59:13;;;;;;;16.42;7.75;;;;;;;;;;5115049;27;20533;-49
2023/07/05 08:01:40;;;;;;;13.82;8.02;;;;;;;;;;5093225;28;20191;-55
2023/07/05 08:04:09;;;;;;;15.65;7.57;;;;;;;;;;5093189;28;20219;-51
2023/07/05 08:06:40;;;;;;;12.13;7.45;;;;;;;;;;5090778;28;20277;-52
2023/07/05 08:09:11;;;;;;;13.85;8.40;;;;;;;;;;5093386;28;20199;-52
2023/07/05 08:11:39;;;;;;;12.27;7.68;;;;;;;;;;5090684;28;20530;-51
2023/07/05 08:14:07;;;;;;;13.73;7.50;;;;;;;;;;5093536;28;20198;-51
2023/07/05 08:16:34;;;;;;;12.27;7.45;;;;;;;;;;5093042;28;20218;-50
2023/07/05 08:19:02;;;;;;;12.30;7.97;;;;;;;;;;5093364;28;20198;-50
2023/07/05 08:21:29;;;;;;;11.75;7.45;;;;;;;;;;5093777;28;20205;-49
2023/07/05 08:23:57;;;;;;;15.18;8.18;;;;;;;;;;5092809;28;20226;-47
2023/07/05 08:26:42;;;;;;;14.55;8.07;;;;;;;;;;5093335;28;20293;-49
2023/07/05 08:29:09;;;;;;;15.85;8.75;;;;;;;;;;5092797;28;20233;-50
2023/07/05 08:31:37;;;;;;;15.68;8.52;;;;;;;;;;5092994;28;20256;-48
2023/07/05 08:34:04;;;;;;;17.00;8.63;;;;;;;;;;5092891;28;20206;-53
2023/07/05 08:36:36;;;;;;;16.88;8.93;;;;;;;;;;5093136;28;20198;-50
2023/07/05 08:39:06;;;;;;;14.68;8.20;;;;;;;;;;5090994;28;20190;-49
2023/07/05 08:41:36;;;;;;;16.52;8.55;;;;;;;;;;5092699;28;20209;-50
2023/07/05 08:44:03;;;;;;;15.45;8.15;;;;;;;;;;5084921;28;20233;-48
2023/07/05 08:46:31;;;;;;;13.05;8.23;;;;;;;;;;5092111;28;20222;-48
2023/07/05 08:49:06;;;;;;;15.25;7.80;;;;;;;;;;5092031;28;20290;-48
2023/07/05 08:51:34;;;;;;;13.77;8.48;;;;;;;;;;5084757;28;20284;-48
2023/07/05 08:54:04;;;;;;;13.25;8.25;;;;;;;;;;5072134;28;20254;-53
2023/07/05 08:56:36;;;;;;;14.13;8.80;;;;;;;;;;5083140;28;20313;-48
2023/07/05 08:59:23;;;;;;;13.50;8.10;;;;;;;;;;5070158;28;20238;-49
2023/07/05 09:01:52;;;;;;;14.05;8.45;;;;;;;;;;5072463;28;20219;-52
2023/07/05 09:04:25;;;;;;;17.00;8.30;;;;;;;;;;5070577;28;20231;-48
2023/07/05 09:07:15;;;;;;;16.20;8.05;;;;;;;;;;5084000;28;20679;-51
2023/07/05 09:10:07;;;;;;;15.32;8.05;;;;;;;;;;5089910;28;20675;-51
2023/07/05 09:12:39;;;;;;;14.15;8.43;;;;;;;;;;5091375;28;20214;-47
2023/07/05 09:15:14;;;;;;;22.05;8.80;;;;;;;;;;5090390;28;20222;-47
2023/07/05 09:18:02;;;;;;;17.02;9.32;;;;;;;;;;5092319;28;20249;-46
2023/07/05 09:20:53;;;;;;;14.45;8.80;;;;;;;;;;5094543;28;20223;-47
2023/07/05 09:23:31;;;;;;;16.63;8.85;;;;;;;;;;5094052;28;20227;-47
2023/07/05 09:26:10;;;;;;;12.90;8.25;;;;;;;;;;5094211;28;20222;-48
2023/07/05 09:28:43;;;;;;;14.82;7.93;;;;;;;;;;5092406;28;20219;-47
2023/07/05 09:31:11;;;;;;;18.92;9.27;;;;;;;;;;5092363;28;20308;-47
2023/07/05 09:33:45;;;;;;;15.32;9.15;;;;;;;;;;5096294;28;20260;-48
2023/07/05 09:36:24;;;;;;;14.20;8.50;;;;;;;;;;5094055;28;20289;-48
2023/07/05 09:38:58;;;;;;;13.38;8.35;;;;;;;;;;5093603;28;20282;-50
2023/07/05 09:41:47;;;;;;;13.50;7.95;;;;;;;;;;5096362;28;20247;-48
2023/07/05 09:44:17;;;;;;;13.95;8.02;;;;;;;;;;5094055;28;20225;-47
2023/07/05 09:46:44;;;;;;;17.75;8.82;;;;;;;;;;5093108;28;20194;-47
2023/07/05 09:49:13;;;;;;;13.02;7.85;;;;;;;;;;5095029;28;20202;-46
2023/07/05 09:51:43;;;;;;;16.42;8.68;;;;;;;;;;5094789;28;20191;-47
2023/07/05 09:54:29;;;;;;;14.25;7.95;;;;;;;;;;5094230;28;20198;-48
2023/07/05 09:57:04;;;;;;;14.30;8.45;;;;;;;;;;5110648;27;20192;-48
2023/07/05 09:59:36;;;;;;;13.23;8.45;;;;;;;;;;5077095;28;20202;-48
2023/07/05 10:02:12;;;;;;;14.13;8.02;;;;;;;;;;5094900;28;20222;-48
2023/07/05 10:05:16;;;;;;;16.42;8.75;;;;;;;;;;5093835;28;20222;-51
2023/07/05 10:07:55;;;;;;;17.50;8.75;;;;;;;;;;5094764;28;20229;-48
2023/07/05 10:10:32;;;;;;;14.75;8.77;;;;;;;;;;5095066;28;20604;-49
2023/07/05 10:13:26;;;;;;;15.32;9.13;;;;;;;;;;5084910;28;20320;-47
2023/07/05 10:16:04;;;;;;;16.90;8.52;;;;;;;;;;5085061;28;20223;-47
2023/07/05 10:18:33;;;;;;;15.45;8.18;;;;;;;;;;5095493;28;20222;-49
2023/07/05 10:21:03;;;;;;;16.83;8.98;;;;;;;;;;5094397;28;20222;-48
2023/07/05 10:23:33;;;;;;;14.90;9.02;;;;;;;;;;5093595;28;20223;-46
2023/07/05 10:26:03;;;;;;;15.07;9.13;;;;;;;;;;5090731;28;20241;-47
2023/07/05 10:28:33;;;;;;;13.35;8.10;;;;;;;;;;5094797;28;20222;-47
2023/07/05 10:31:05;;;;;;;14.05;8.52;;;;;;;;;;5090579;28;20221;-48
2023/07/05 10:33:37;;;;;;;16.27;8.25;;;;;;;;;;5094667;28;20242;-49
2023/07/05 10:36:13;;;;;;;15.23;8.13;;;;;;;;;;5092283;28;20215;-47
2023/07/05 10:38:46;;;;;;;16.05;8.77;;;;;;;;;;5091541;28;20210;-52
2023/07/05 10:41:19;;;;;;;14.70;8.52;;;;;;;;;;5093722;28;20237;-51
2023/07/05 10:43:58;;;;;;;13.27;8.25;;;;;;;;;;5094004;28;20231;-49
2023/07/05 10:46:26;;;;;;;14.85;8.55;;;;;;;;;;5091946;28;20238;-48
2023/07/05 10:48:54;;;;;;;14.50;7.97;;;;;;;;;;5092272;28;20218;-47
2023/07/05 10:51:24;;;;;;;14.25;7.82;;;;;;;;;;5092590;28;20222;-50
2023/07/05 10:54:21;;;;;;;12.10;7.55;;;;;;;;;;5088907;28;20707;-47
2023/07/05 10:56:48;;;;;;;15.07;8.65;;;;;;;;;;5089726;28;20269;-48
2023/07/05 10:59:36;;;;;;;12.70;7.70;;;;;;;;;;5093125;28;20223;-48
2023/07/05 11:02:21;;;;;;;14.93;8.63;;;;;;;;;;5092735;28;20216;-47
2023/07/05 11:04:50;;;;;;;14.25;7.78;;;;;;;;;;5092202;28;20238;-46
2023/07/05 11:07:18;;;;;;;14.55;9.00;;;;;;;;;;5092394;28;20688;-47
2023/07/05 11:09:45;;;;;;;15.43;8.70;;;;;;;;;;5092376;28;20218;-46
2023/07/05 11:12:20;;;;;;;14.05;7.90;;;;;;;;;;5093342;28;20260;-46
2023/07/05 11:14:48;;;;;;;12.57;7.63;;;;;;;;;;5092551;28;20217;-47
2023/07/05 11:17:24;;;;;;;13.55;8.43;;;;;;;;;;5093456;28;20314;-47
2023/07/05 11:19:52;;;;;;;13.98;8.32;;;;;;;;;;5093903;28;20226;-48
2023/07/05 11:22:43;;;;;;;12.57;7.57;;;;;;;;;;5093798;28;20232;-47
2023/07/05 11:25:19;;;;;;;17.58;8.05;;;;;;;;;;5093586;28;20243;-46
2023/07/05 11:27:56;;;;;;;14.25;7.75;;;;;;;;;;5091598;28;20221;-47
2023/07/05 11:30:46;;;;;;;15.25;8.30;;;;;;;;;;5092680;28;20229;-48
2023/07/05 11:33:16;;;;;;;13.00;8.10;;;;;;;;;;5093721;28;20275;-49
2023/07/05 11:35:58;;;;;;;12.20;7.82;;;;;;;;;;5093639;28;20229;-50
2023/07/05 11:38:37;;;;;;;12.43;8.02;;;;;;;;;;5093680;28;20250;-52
2023/07/05 11:41:28;;;;;;;13.35;7.97;;;;;;;;;;5093622;28;20226;-49
2023/07/05 11:44:02;;;;;;;12.88;8.23;;;;;;;;;;5087835;28;20218;-48
2023/07/05 11:46:44;;;;;;;14.25;7.75;;;;;;;;;;5093495;28;20221;-47
2023/07/05 11:49:19;;;;;;;15.88;8.23;;;;;;;;;;5093421;28;20218;-47
2023/07/05 11:52:03;;;;;;;11.55;7.80;;;;;;;;;;5092573;28;20564;-48
2023/07/05 11:54:36;;;;;;;11.85;7.30;;;;;;;;;;5091906;28;20222;-48
2023/07/05 11:57:08;;;;;;;13.85;7.60;;;;;;;;;;5114983;27;20226;-47
2023/07/05 11:59:40;;;;;;;12.50;7.25;;;;;;;;;;5092139;28;20211;-53
2023/07/05 12:02:23;;;;;;;15.85;7.57;;;;;;;;;;5092801;28;20215;-48
2023/07/05 12:04:53;;;;;;;15.82;8.30;;;;;;;;;;5114245;27;20227;-47
2023/07/05 12:07:21;;;;;;;13.02;8.07;;;;;;;;;;5075013;28;20231;-47
2023/07/05 12:09:49;;;;;;;12.15;7.68;;;;;;;;;;5082904;28;20215;-47
2023/07/05 12:12:20;;;;;;;12.55;7.78;;;;;;;;;;5088598;28;20219;-48
2023/07/05 12:14:47;;;;;;;16.45;8.45;;;;;;;;;;5092723;28;20226;-48
2023/07/05 12:17:17;;;;;;;16.17;8.38;;;;;;;;;;5088284;28;20219;-49
2023/07/05 12:19:44;;;;;;;12.88;8.55;;;;;;;;;;5088825;28;20215;-48
2023/07/05 12:22:18;;;;;;;11.88;7.60;;;;;;;;;;5089270;27;20229;-48
2023/07/05 12:24:49;;;;;;;15.02;7.97;;;;;;;;;;5091902;28;20284;-50
2023/07/05 12:27:22;;;;;;;15.95;8.32;;;;;;;;;;5090773;28;20214;-49
2023/07/05 12:29:57;;;;;;;14.10;8.13;;;;;;;;;;5092663;28;20221;-46
2023/07/05 12:32:27;;;;;;;12.85;8.07;;;;;;;;;;5092064;28;20213;-48
2023/07/05 12:35:14;;;;;;;14.00;7.82;;;;;;;;;;5092704;28;20214;-47
2023/07/05 12:37:42;;;;;;;14.20;7.93;;;;;;;;;;5091946;28;20218;-47
2023/07/05 12:40:20;;;;;;;13.10;7.25;;;;;;;;;;5088966;28;20221;-50
2023/07/05 12:43:03;;;;;;;17.50;7.88;;;;;;;;;;5092215;28;20214;-48
2023/07/05 12:45:34;;;;;;;13.10;7.57;;;;;;;;;;5092510;28;20234;-46
2023/07/05 12:48:29;;;;;;;14.23;8.15;;;;;;;;;;5073313;28;20214;-49
2023/07/05 12:51:28;;;;;;;15.73;8.05;;;;;;;;;;5090509;28;20635;-47
2023/07/05 12:53:59;;;;;;;13.43;7.80;;;;;;;;;;5049816;28;20220;-50
2023/07/05 12:56:38;;;;;;;12.75;7.28;;;;;;;;;;5052993;28;20228;-47
2023/07/05 12:59:15;;;;;;;15.35;8.20;;;;;;;;;;5054240;28;20219;-48
2023/07/05 13:01:57;;;;;;;13.35;8.07;;;;;;;;;;5039695;28;20560;-46
2023/07/05 13:04:25;;;;;;;13.18;7.57;;;;;;;;;;5036434;28;20224;-47
2023/07/05 13:06:55;;;;;;;13.57;7.78;;;;;;;;;;5052874;28;20218;-47
2023/07/05 13:09:25;;;;;;;12.85;7.70;;;;;;;;;;5052470;28;20591;-49
2023/07/05 13:12:04;;;;;;;13.68;6.82;;;;;;;;;;5052894;28;20223;-47
2023/07/05 13:14:33;;;;;;;14.43;7.55;;;;;;;;;;5048740;28;20590;-47
2023/07/05 13:17:12;;;;;;;14.95;8.52;;;;;;;;;;5053183;28;20234;-49
2023/07/05 13:19:45;;;;;;;14.20;7.53;;;;;;;;;;5053427;28;20227;-47
2023/07/05 13:22:27;;;;;;;13.50;7.82;;;;;;;;;;5048637;28;20260;-48
2023/07/05 13:24:56;;;;;;;15.10;8.07;;;;;;;;;;5053199;28;20247;-47
2023/07/05 13:27:31;;;;;;;16.27;7.63;;;;;;;;;;5052924;28;20228;-46
2023/07/05 13:30:10;;;;;;;12.10;7.05;;;;;;;;;;5067699;28;20233;-48
2023/07/05 13:32:42;;;;;;;13.32;7.93;;;;;;;;;;5093070;28;20218;-49
2023/07/05 13:35:10;;;;;;;13.50;7.70;;;;;;;;;;5093333;28;20230;-53
2023/07/05 13:37:37;;;;;;;14.25;7.43;;;;;;;;;;5095410;28;20218;-54
2023/07/05 13:40:09;;;;;;;13.48;7.80;;;;;;;;;;5095043;28;20215;-48
2023/07/05 13:42:38;;;;;;;11.85;7.22;;;;;;;;;;5094790;28;20257;-48
2023/07/05 13:45:24;;;;;;;14.57;7.53;;;;;;;;;;5095305;28;20223;-48
2023/07/05 13:47:52;;;;;;;13.82;7.40;;;;;;;;;;5093039;28;20309;-48
2023/07/05 13:50:20;;;;;;;13.35;7.47;;;;;;;;;;5095073;28;20227;-49
2023/07/05 13:52:48;;;;;;;14.18;7.18;;;;;;;;;;5093895;28;20226;-47
2023/07/05 13:55:17;;;;;;;11.50;7.50;;;;;;;;;;5094757;28;20226;-48
2023/07/05 13:57:58;;;;;;;14.38;7.32;;;;;;;;;;5091442;28;20309;-48
2023/07/05 14:00:29;;;;;;;11.88;7.40;;;;;;;;;;5091400;28;20215;-49
2023/07/05 14:02:57;;;;;;;12.73;7.50;;;;;;;;;;5092030;28;20223;-51
2023/07/05 14:05:28;;;;;;;12.75;7.65;;;;;;;;;;5094217;28;20230;-47
2023/07/05 14:07:58;;;;;;;19.65;7.68;;;;;;;;;;5093465;28;20215;-47
2023/07/05 14:10:28;;;;;;;14.02;7.57;;;;;;;;;;5093996;28;20223;-48
2023/07/05 14:12:55;;;;;;;14.68;8.30;;;;;;;;;;5094607;28;20214;-47
2023/07/05 14:15:52;;;;;;;14.02;7.72;;;;;;;;;;5094511;28;20226;-54
2023/07/05 14:18:19;;;;;;;12.63;7.80;;;;;;;;;;5062216;28;20787;-48
2023/07/05 14:20:47;;;;;;;12.13;7.90;;;;;;;;;;5069075;28;20246;-47
2023/07/05 14:23:16;;;;;;;16.40;8.13;;;;;;;;;;5076782;28;20220;-47
2023/07/05 14:25:48;;;;;;;11.50;7.38;;;;;;;;;;5055409;28;20583;-46
2023/07/05 14:28:16;;;;;;;18.60;7.72;;;;;;;;;;5068934;28;20220;-47
2023/07/05 14:30:45;;;;;;;11.43;7.65;;;;;;;;;;5068548;28;20227;-47
2023/07/05 14:33:14;;;;;;;17.20;7.22;;;;;;;;;;5069388;28;20269;-50
2023/07/05 14:35:41;;;;;;;18.60;8.18;;;;;;;;;;5072279;28;20233;-49
2023/07/05 14:38:08;;;;;;;11.25;7.15;;;;;;;;;;5071922;28;20232;-52
2023/07/05 14:40:37;;;;;;;13.93;7.82;;;;;;;;;;5071761;28;20261;-48
2023/07/05 14:43:04;;;;;;;13.02;7.55;;;;;;;;;;5072108;28;20301;-47
2023/07/05 14:45:33;;;;;;;17.13;8.48;;;;;;;;;;5071242;28;20239;-48
2023/07/05 14:48:01;;;;;;;14.45;8.13;;;;;;;;;;5063320;28;20242;-50
2023/07/05 14:50:31;;;;;;;16.23;8.05;;;;;;;;;;5069569;28;20306;-49
2023/07/05 14:52:59;;;;;;;12.10;7.75;;;;;;;;;;5070902;28;20767;-48
2023/07/05 14:55:26;;;;;;;13.20;7.35;;;;;;;;;;5082152;28;20223;-47